< < Back
Terminal Aerodrome Forecast


Current Version              Previous Versions:   1  2  3  4  5  6  7  8  9  

Terminal Aerodrome Forecast

839
FTUS42 KMLB 272204 AAB
TAFMCO
TAF AMD
KMCO 272204Z 2722/2818 01013KT P6SM BKN015 OVC025
     FM280300 01010KT P6SM OVC012
     FM281500 05014G20KT P6SM VCSH OVC018=

Latest METAR

920
SAUS70 KWBC 272300 RRB
MTRMCO
METAR KMCO 272253Z 01018G23KT 10SM OVC015 13/10 A3022 RMK AO2 SLP232
T01330100


USA.gov is the U.S. government's official web portal to all federal, state and local government web resources and services.